Stoke Gifford, United Kingdom
Current Conditions -  °F | °C
As of 3:50 PM on Friday 19 Dec 2014 (Local Time) from EGGD Reporting Station
Few Clouds Few Clouds  
Wind Chill: 35°   Ceiling: Unl
Heat Index: 43°   Visibility: 6mi
Dew Point: 37°   Wind: 18mph
Humidity: 81%   Direction: 260°W
Pressure: 30.12"   Gusts: NA
Location:  51.52°N, 2.54°W
Report Text: EGGD 191550Z 26016KT 9999 FEW026 06/03 Q1020
Loading
Personal Weather Stations






























Interactive Weather Map New forecast layout! Learn more

10-Day Weather Forecast

Advertisements
Track Severe Weather on mobile